createdAt,value
2018-12-12T00:00:38.650Z,2.10
2018-12-12T00:03:08.238Z,2.10
2018-12-12T00:05:37.879Z,2.10
2018-12-12T00:08:07.496Z,2.10
2018-12-12T00:10:37.135Z,2.10
2018-12-12T00:13:06.758Z,2.10
2018-12-12T00:15:36.363Z,2.10
2018-12-12T00:18:06.262Z,2.10
2018-12-12T00:20:35.879Z,2.10
2018-12-12T00:23:05.448Z,2.10
2018-12-12T00:25:35.092Z,2.10
2018-12-12T00:28:04.661Z,2.10
2018-12-12T00:30:34.322Z,2.10
2018-12-12T00:33:03.907Z,2.10
2018-12-12T00:35:33.548Z,2.10
2018-12-12T00:38:03.209Z,2.10
2018-12-12T00:40:32.923Z,2.10
2018-12-12T00:43:02.507Z,2.10
2018-12-12T00:45:32.107Z,2.00
2018-12-12T00:48:01.760Z,2.10
2018-12-12T00:50:31.328Z,2.10
2018-12-12T00:53:00.973Z,2.10
2018-12-12T00:55:30.577Z,2.00
2018-12-12T00:58:00.187Z,2.00
2018-12-12T01:00:29.779Z,2.00
2018-12-12T01:02:59.386Z,2.10
2018-12-12T01:05:28.980Z,2.00
2018-12-12T01:07:58.619Z,2.10
2018-12-12T01:10:28.226Z,2.00
2018-12-12T01:12:57.840Z,2.00
2018-12-12T01:15:27.395Z,2.00
2018-12-12T01:17:56.961Z,2.00
2018-12-12T01:20:26.525Z,2.00
2018-12-12T01:22:56.267Z,2.00
2018-12-12T01:25:25.826Z,2.00
2018-12-12T01:27:55.499Z,2.00
2018-12-12T01:30:25.060Z,2.00
2018-12-12T01:32:54.701Z,2.00
2018-12-12T01:35:24.275Z,2.00
2018-12-12T01:37:53.909Z,2.00
2018-12-12T01:40:23.463Z,2.10
2018-12-12T01:42:53.108Z,2.10
2018-12-12T01:45:22.660Z,2.10
2018-12-12T01:47:52.227Z,2.10
2018-12-12T01:50:21.870Z,2.10
2018-12-12T01:52:51.451Z,2.10
2018-12-12T01:55:21.262Z,2.10
2018-12-12T01:57:50.923Z,2.10
2018-12-12T02:00:20.625Z,2.10
2018-12-12T02:02:50.233Z,2.10
2018-12-12T02:05:19.923Z,2.10
2018-12-12T02:07:49.947Z,2.10
2018-12-12T02:10:19.784Z,2.10
2018-12-12T02:13:05.108Z,2.10
2018-12-12T02:15:34.785Z,2.10
2018-12-12T02:18:04.667Z,2.20
2018-12-12T02:20:34.287Z,2.20
2018-12-12T02:23:03.952Z,2.20
2018-12-12T02:25:33.556Z,2.20
2018-12-12T02:28:03.189Z,2.20
2018-12-12T02:30:32.814Z,2.20
2018-12-12T02:33:02.624Z,2.20
2018-12-12T02:35:32.216Z,2.20
2018-12-12T02:38:02.252Z,2.20
2018-12-12T02:40:31.917Z,2.20
2018-12-12T02:43:01.561Z,2.30
2018-12-12T02:45:31.246Z,2.20
2018-12-12T02:48:00.846Z,2.20
2018-12-12T02:50:30.591Z,2.20
2018-12-12T02:53:00.184Z,2.20
2018-12-12T02:55:30.157Z,2.20
2018-12-12T02:57:59.767Z,2.10
2018-12-12T03:00:29.414Z,2.20
2018-12-12T03:02:59.008Z,2.20
2018-12-12T03:05:28.714Z,2.20
2018-12-12T03:07:58.395Z,2.20
2018-12-12T03:10:28.097Z,2.20
2018-12-12T03:12:57.713Z,2.20
2018-12-12T03:15:28.297Z,2.20
2018-12-12T03:17:58.137Z,2.20
2018-12-12T03:20:27.810Z,2.20
2018-12-12T03:22:57.411Z,2.20
2018-12-12T03:25:27.094Z,2.20
2018-12-12T03:27:56.716Z,2.20
2018-12-12T03:30:26.348Z,2.10
2018-12-12T03:32:56.063Z,2.10
2018-12-12T03:35:25.796Z,2.20
2018-12-12T03:37:55.444Z,2.10
2018-12-12T03:40:25.508Z,2.10
2018-12-12T03:42:55.599Z,2.10
2018-12-12T03:45:25.314Z,2.10
2018-12-12T03:47:54.989Z,2.10
2018-12-12T03:50:24.880Z,2.10
2018-12-12T03:52:54.550Z,2.10
2018-12-12T03:55:24.191Z,2.10
2018-12-12T03:57:53.841Z,2.10
2018-12-12T04:00:23.511Z,2.10
2018-12-12T04:02:53.149Z,2.10
2018-12-12T04:05:22.741Z,2.10
2018-12-12T04:07:52.388Z,2.10
2018-12-12T04:10:21.986Z,2.10
2018-12-12T04:12:51.690Z,2.10
2018-12-12T04:15:21.260Z,2.00
2018-12-12T04:17:50.907Z,2.10
2018-12-12T04:20:20.498Z,2.10
2018-12-12T04:22:50.090Z,2.20
2018-12-12T04:25:19.655Z,2.20
2018-12-12T04:27:49.656Z,2.20
2018-12-12T04:30:19.286Z,2.20
2018-12-12T04:32:48.975Z,2.10
2018-12-12T04:35:18.594Z,2.10
2018-12-12T04:37:48.267Z,2.10
2018-12-12T04:40:17.863Z,2.10
2018-12-12T04:42:47.569Z,2.10
2018-12-12T04:45:17.178Z,2.00
2018-12-12T04:47:46.835Z,2.00
2018-12-12T04:50:16.602Z,2.00
2018-12-12T04:52:46.202Z,1.90
2018-12-12T04:55:15.819Z,2.00
2018-12-12T04:57:45.432Z,2.00
2018-12-12T05:00:15.140Z,2.00
2018-12-12T05:02:45.494Z,1.90
2018-12-12T05:05:15.228Z,1.90
2018-12-12T05:07:44.851Z,1.90
2018-12-12T05:10:14.505Z,1.90
2018-12-12T05:12:44.159Z,1.90
2018-12-12T05:15:13.799Z,1.90
2018-12-12T05:17:43.426Z,1.90
2018-12-12T05:20:13.055Z,1.90
2018-12-12T05:22:42.668Z,1.90
2018-12-12T05:25:12.330Z,1.90
2018-12-12T05:27:41.933Z,1.90
2018-12-12T05:30:11.678Z,1.90
2018-12-12T05:32:41.302Z,2.00
2018-12-12T05:35:11.009Z,1.90
2018-12-12T05:37:40.596Z,2.00
2018-12-12T05:40:10.601Z,1.90
2018-12-12T05:42:40.418Z,2.00
2018-12-12T05:45:10.198Z,2.00
2018-12-12T05:47:39.931Z,2.00
2018-12-12T05:50:09.557Z,2.00
2018-12-12T05:52:39.232Z,2.00
2018-12-12T05:55:09.123Z,2.00
2018-12-12T05:57:38.771Z,2.00
2018-12-12T06:00:11.307Z,2.00
2018-12-12T06:02:40.968Z,2.00
2018-12-12T06:05:10.600Z,2.00
2018-12-12T06:07:40.233Z,2.00
2018-12-12T06:10:10.237Z,2.00
2018-12-12T06:12:40.026Z,2.00
2018-12-12T06:15:10.207Z,2.00
2018-12-12T06:17:39.968Z,2.00
2018-12-12T06:20:09.799Z,2.00
2018-12-12T06:22:40.493Z,2.00
2018-12-12T06:25:10.234Z,1.90
2018-12-12T06:27:39.944Z,1.90
2018-12-12T06:30:10.320Z,1.90
2018-12-12T06:32:40.109Z,1.90
2018-12-12T06:35:09.859Z,1.90
2018-12-12T06:37:39.556Z,2.00
2018-12-12T06:40:09.198Z,2.00
2018-12-12T06:42:38.835Z,2.00
2018-12-12T06:45:08.739Z,2.00
2018-12-12T06:47:38.345Z,2.00
2018-12-12T06:50:08.897Z,2.00
2018-12-12T06:52:38.473Z,2.00
2018-12-12T06:55:08.320Z,2.00
2018-12-12T06:57:37.900Z,2.00
2018-12-12T07:00:07.945Z,2.00
2018-12-12T07:02:37.499Z,2.00
2018-12-12T07:05:07.233Z,2.00
2018-12-12T07:07:37.094Z,2.00
2018-12-12T07:10:06.848Z,2.00
2018-12-12T07:12:36.444Z,1.90
2018-12-12T07:15:06.217Z,1.90
2018-12-12T07:17:35.778Z,1.90
2018-12-12T07:20:05.562Z,1.90
2018-12-12T07:22:35.139Z,1.80
2018-12-12T07:25:04.877Z,1.80
2018-12-12T07:27:34.437Z,1.80
2018-12-12T07:30:04.650Z,1.80
2018-12-12T07:32:34.214Z,1.80
2018-12-12T07:35:03.855Z,1.80
2018-12-12T07:37:33.452Z,1.80
2018-12-12T07:40:03.101Z,1.80
2018-12-12T07:42:32.681Z,1.80
2018-12-12T07:45:02.265Z,1.80
2018-12-12T07:47:31.875Z,1.80
2018-12-12T07:50:01.435Z,1.80
2018-12-12T07:52:31.087Z,1.80
2018-12-12T07:55:00.639Z,1.90
2018-12-12T07:57:30.306Z,1.90
2018-12-12T07:59:59.870Z,1.90
2018-12-12T08:02:29.511Z,1.90
2018-12-12T08:04:59.072Z,1.80
2018-12-12T08:07:28.755Z,1.90
2018-12-12T08:09:58.330Z,1.90
2018-12-12T08:12:27.966Z,1.90
2018-12-12T08:14:57.548Z,1.90
2018-12-12T08:17:27.267Z,2.00
2018-12-12T08:19:56.874Z,1.90
2018-12-12T08:22:26.445Z,2.00
2018-12-12T08:24:56.058Z,2.00
2018-12-12T08:27:25.799Z,2.00
2018-12-12T08:29:55.392Z,2.00
2018-12-12T08:32:25.002Z,2.10
2018-12-12T08:34:54.576Z,2.10
2018-12-12T08:37:24.254Z,2.10
2018-12-12T08:39:53.850Z,2.00
2018-12-12T08:42:23.550Z,2.00
2018-12-12T08:44:53.139Z,1.90
2018-12-12T08:47:22.780Z,1.80
2018-12-12T08:49:52.341Z,1.80
2018-12-12T08:52:21.942Z,1.80
2018-12-12T08:54:51.522Z,1.90
2018-12-12T08:57:21.791Z,1.90
2018-12-12T08:59:51.353Z,1.80
2018-12-12T09:02:21.036Z,1.70
2018-12-12T09:04:50.641Z,1.70
2018-12-12T09:07:20.347Z,1.70
2018-12-12T09:09:49.936Z,1.80
2018-12-12T09:12:19.555Z,1.80
2018-12-12T09:14:49.248Z,1.80
2018-12-12T09:17:18.822Z,2.00
2018-12-12T09:19:48.582Z,2.10
2018-12-12T09:22:18.142Z,2.00
2018-12-12T09:24:47.778Z,2.00
2018-12-12T09:27:17.328Z,2.00
2018-12-12T09:29:47.140Z,2.00
2018-12-12T09:32:16.722Z,2.00
2018-12-12T09:34:46.414Z,2.00
2018-12-12T09:37:15.987Z,2.00
2018-12-12T09:39:45.664Z,2.00
2018-12-12T09:42:15.290Z,2.00
2018-12-12T09:44:44.954Z,2.00
2018-12-12T09:47:14.522Z,2.00
2018-12-12T09:49:44.126Z,2.00
2018-12-12T09:52:13.790Z,2.00
2018-12-12T09:54:43.451Z,2.10
2018-12-12T09:57:13.093Z,2.20
2018-12-12T09:59:42.681Z,2.20
2018-12-12T10:02:12.339Z,2.20
2018-12-12T10:04:41.919Z,2.30
2018-12-12T10:07:11.607Z,2.50
2018-12-12T10:09:41.209Z,2.60
2018-12-12T10:12:10.829Z,2.70
2018-12-12T10:14:40.437Z,2.80
2018-12-12T10:17:10.047Z,2.90
2018-12-12T10:19:39.652Z,3.00
2018-12-12T10:22:09.428Z,3.10
2018-12-12T10:24:39.164Z,3.10
2018-12-12T10:27:08.724Z,3.30
2018-12-12T10:29:38.446Z,3.40
2018-12-12T10:32:08.111Z,3.50
2018-12-12T10:34:38.778Z,3.60
2018-12-12T10:37:08.427Z,3.70
2018-12-12T10:39:38.048Z,3.70
2018-12-12T10:42:07.658Z,3.90
2018-12-12T10:44:37.374Z,4.10
2018-12-12T10:47:06.983Z,4.30
2018-12-12T10:49:36.664Z,4.50
2018-12-12T10:52:06.296Z,4.90
2018-12-12T10:54:35.921Z,5.10
2018-12-12T10:57:05.638Z,5.60
2018-12-12T10:59:35.260Z,5.20
2018-12-12T11:02:10.079Z,4.80
2018-12-12T11:04:39.688Z,4.20
2018-12-12T11:07:09.435Z,3.80
2018-12-12T11:09:39.036Z,3.50
2018-12-12T11:12:08.683Z,3.50
2018-12-12T11:14:38.319Z,3.50
2018-12-12T11:17:08.012Z,3.50
2018-12-12T11:19:37.614Z,3.50
2018-12-12T11:22:07.334Z,3.40
2018-12-12T11:24:36.934Z,3.50
2018-12-12T11:27:06.630Z,3.60
2018-12-12T11:29:36.227Z,4.20
2018-12-12T11:32:05.998Z,6.10
2018-12-12T11:34:35.598Z,6.70
2018-12-12T11:37:05.410Z,6.90
2018-12-12T11:39:35.006Z,8.00
2018-12-12T11:42:04.708Z,8.70
2018-12-12T11:44:34.363Z,9.30
2018-12-12T11:47:04.020Z,9.60
2018-12-12T11:49:33.713Z,9.70
2018-12-12T11:52:03.438Z,9.30
2018-12-12T11:54:33.133Z,8.60
2018-12-12T11:57:02.801Z,7.40
2018-12-12T11:59:32.428Z,7.30
2018-12-12T12:02:02.089Z,8.80
2018-12-12T12:04:31.680Z,9.40
2018-12-12T12:07:01.302Z,9.30
2018-12-12T12:09:30.967Z,8.80
2018-12-12T12:12:00.580Z,8.10
2018-12-12T12:14:30.280Z,8.10
2018-12-12T12:16:59.877Z,8.40
2018-12-12T12:19:29.503Z,7.20
2018-12-12T12:21:59.107Z,6.80
2018-12-12T12:24:28.853Z,6.80
2018-12-12T12:26:58.474Z,6.10
2018-12-12T12:29:28.844Z,5.60
2018-12-12T12:31:58.505Z,5.40
2018-12-12T12:34:28.166Z,5.10
2018-12-12T12:36:57.874Z,4.90
2018-12-12T12:39:27.773Z,4.80
2018-12-12T12:41:57.365Z,4.70
2018-12-12T12:44:27.009Z,4.80
2018-12-12T12:46:56.607Z,4.90
2018-12-12T12:49:26.207Z,4.90
2018-12-12T12:51:56.334Z,4.70
2018-12-12T12:54:25.888Z,4.70
2018-12-12T12:56:55.493Z,4.60
2018-12-12T12:59:25.403Z,4.50
2018-12-12T13:01:55.059Z,4.60
2018-12-12T13:04:24.651Z,4.60
2018-12-12T13:06:54.335Z,4.60
2018-12-12T13:09:23.914Z,4.60
2018-12-12T13:11:53.608Z,4.70
2018-12-12T13:14:23.312Z,4.50
2018-12-12T13:16:53.036Z,4.50
2018-12-12T13:19:22.630Z,4.30
2018-12-12T13:21:52.329Z,4.40
2018-12-12T13:24:21.933Z,4.40
2018-12-12T13:26:53.626Z,4.40
2018-12-12T13:29:23.279Z,4.30
2018-12-12T13:31:52.916Z,4.20
2018-12-12T13:34:22.529Z,4.20
2018-12-12T13:36:52.248Z,4.30
2018-12-12T13:39:21.846Z,4.20
2018-12-12T13:41:51.749Z,4.20
2018-12-12T13:44:21.432Z,4.20
2018-12-12T13:46:51.080Z,4.10
2018-12-12T13:49:20.817Z,4.10
2018-12-12T13:51:50.413Z,4.10
2018-12-12T13:54:20.142Z,4.20
2018-12-12T13:56:49.746Z,4.10
2018-12-12T13:59:19.544Z,4.00
2018-12-12T14:01:49.155Z,4.00
2018-12-12T14:04:22.676Z,4.00
2018-12-12T14:06:50.501Z,4.10
2018-12-12T14:09:20.219Z,4.00
2018-12-12T14:11:49.811Z,3.90
2018-12-12T14:14:19.525Z,3.90
2018-12-12T14:16:49.122Z,3.80
2018-12-12T14:19:18.832Z,3.80
2018-12-12T14:21:48.490Z,3.80
2018-12-12T14:24:18.148Z,3.90
2018-12-12T14:26:47.773Z,3.80
2018-12-12T14:29:17.513Z,3.80
2018-12-12T14:31:47.126Z,3.80
2018-12-12T14:34:16.770Z,3.80
2018-12-12T14:36:46.367Z,3.80
2018-12-12T14:39:16.020Z,3.70
2018-12-12T14:41:45.644Z,3.70
2018-12-12T14:44:15.302Z,3.60
2018-12-12T14:46:44.917Z,3.60
2018-12-12T14:49:14.667Z,3.60
2018-12-12T14:51:44.271Z,3.60
2018-12-12T14:54:13.946Z,3.60
2018-12-12T14:56:43.552Z,3.50
2018-12-12T14:59:13.271Z,3.50
2018-12-12T15:01:43.227Z,3.40
2018-12-12T15:04:12.879Z,3.40
2018-12-12T15:06:42.479Z,3.40
2018-12-12T15:09:12.206Z,3.40
2018-12-12T15:11:41.835Z,3.40
2018-12-12T15:14:11.510Z,3.30
2018-12-12T15:16:41.647Z,3.30
2018-12-12T15:19:11.504Z,3.20
2018-12-12T15:21:41.104Z,3.20
2018-12-12T15:24:10.681Z,3.20
2018-12-12T15:26:41.052Z,3.20
2018-12-12T15:29:10.682Z,3.10
2018-12-12T15:31:40.296Z,3.10
2018-12-12T15:34:10.046Z,3.10
2018-12-12T15:36:39.660Z,3.10
2018-12-12T15:39:10.161Z,3.10
2018-12-12T15:41:40.610Z,3.10
2018-12-12T15:44:11.083Z,3.10
2018-12-12T15:46:40.707Z,3.10
2018-12-12T15:49:10.412Z,3.00
2018-12-12T15:51:40.105Z,3.00
2018-12-12T15:54:09.786Z,2.90
2018-12-12T15:56:39.408Z,2.90
2018-12-12T15:59:08.975Z,2.90
2018-12-12T16:01:38.571Z,2.90
2018-12-12T16:04:08.108Z,2.90
2018-12-12T16:06:37.717Z,2.90
2018-12-12T16:09:08.423Z,2.90
2018-12-12T16:11:38.062Z,2.90
2018-12-12T16:14:07.639Z,2.90
2018-12-12T16:16:37.289Z,2.90
2018-12-12T16:19:06.853Z,2.90
2018-12-12T16:21:36.538Z,2.80
2018-12-12T16:24:06.131Z,2.80
2018-12-12T16:26:35.726Z,2.70
2018-12-12T16:29:05.416Z,2.60
2018-12-12T16:31:35.038Z,2.60
2018-12-12T16:34:04.646Z,2.50
2018-12-12T16:36:34.243Z,2.50
2018-12-12T16:39:04.939Z,2.50
2018-12-12T16:41:34.693Z,2.40
2018-12-12T16:44:04.424Z,2.40
2018-12-12T16:46:34.009Z,2.40
2018-12-12T16:49:03.603Z,2.30
2018-12-12T16:51:33.199Z,2.20
2018-12-12T16:54:02.883Z,2.20
2018-12-12T16:56:32.493Z,2.20
2018-12-12T16:59:02.185Z,2.20
2018-12-12T17:01:31.785Z,2.20
2018-12-12T17:04:01.506Z,2.20
2018-12-12T17:06:31.127Z,2.20
2018-12-12T17:09:00.818Z,2.20
2018-12-12T17:11:30.436Z,2.20
2018-12-12T17:14:00.141Z,2.20
2018-12-12T17:16:29.794Z,2.20
2018-12-12T17:18:59.471Z,2.10
2018-12-12T17:21:29.076Z,2.10
2018-12-12T17:23:58.748Z,2.10
2018-12-12T17:26:28.366Z,2.00
2018-12-12T17:28:58.077Z,2.10
2018-12-12T17:31:27.859Z,2.00
2018-12-12T17:33:57.599Z,2.10
2018-12-12T17:36:27.204Z,2.00
2018-12-12T17:38:56.933Z,1.90
2018-12-12T17:41:26.564Z,1.90
2018-12-12T17:43:56.252Z,1.80
2018-12-12T17:46:25.875Z,1.70
2018-12-12T17:48:55.556Z,1.70
2018-12-12T17:51:25.223Z,1.60
2018-12-12T17:53:54.811Z,1.60
2018-12-12T17:56:24.466Z,1.50
2018-12-12T17:58:54.062Z,1.50
2018-12-12T18:01:23.679Z,1.40
2018-12-12T18:03:53.415Z,1.40
2018-12-12T18:06:23.092Z,1.30
2018-12-12T18:08:52.669Z,1.30
2018-12-12T18:11:22.290Z,1.30
2018-12-12T18:13:51.870Z,1.20
2018-12-12T18:16:21.528Z,1.20
2018-12-12T18:18:51.321Z,1.20
2018-12-12T18:21:20.964Z,1.20
2018-12-12T18:23:50.549Z,1.10
2018-12-12T18:26:20.273Z,1.10
2018-12-12T18:28:49.852Z,1.00
2018-12-12T18:31:19.512Z,1.00
2018-12-12T18:33:49.137Z,1.00
2018-12-12T18:36:18.774Z,0.90
2018-12-12T18:38:48.377Z,0.80
2018-12-12T18:41:18.028Z,0.80
2018-12-12T18:43:47.609Z,0.70
2018-12-12T18:46:17.303Z,0.60
2018-12-12T18:48:46.898Z,0.50
2018-12-12T18:51:16.486Z,0.50
2018-12-12T18:53:46.143Z,0.50
2018-12-12T18:56:15.728Z,0.60
2018-12-12T18:58:45.603Z,0.70
2018-12-12T19:01:15.181Z,0.70
2018-12-12T19:03:44.917Z,0.80
2018-12-12T19:06:14.511Z,1.00
2018-12-12T19:08:44.215Z,1.10
2018-12-12T19:11:13.782Z,1.10
2018-12-12T19:13:43.420Z,1.10
2018-12-12T19:16:12.996Z,1.20
2018-12-12T19:18:42.600Z,1.20
2018-12-12T19:21:12.208Z,1.30
2018-12-12T19:23:42.402Z,1.40
2018-12-12T19:26:11.999Z,1.40
2018-12-12T19:28:41.701Z,1.50
2018-12-12T19:31:11.278Z,1.50
2018-12-12T19:33:40.948Z,1.50
2018-12-12T19:36:10.561Z,1.50
2018-12-12T19:38:40.161Z,1.50
2018-12-12T19:41:09.797Z,1.50
2018-12-12T19:43:39.617Z,1.60
2018-12-12T19:46:09.318Z,1.60
2018-12-12T19:48:39.011Z,1.70
2018-12-12T19:51:08.625Z,1.70
2018-12-12T19:53:38.348Z,1.70
2018-12-12T19:56:07.921Z,1.70
2018-12-12T19:58:37.550Z,1.80
2018-12-12T20:01:07.146Z,1.70
2018-12-12T20:03:36.795Z,1.80
2018-12-12T20:06:06.358Z,1.80
2018-12-12T20:08:36.153Z,1.70
2018-12-12T20:11:05.837Z,1.80
2018-12-12T20:13:35.613Z,1.70
2018-12-12T20:16:05.175Z,1.70
2018-12-12T20:18:34.948Z,1.70
2018-12-12T20:21:04.544Z,1.70
2018-12-12T20:23:34.241Z,1.70
2018-12-12T20:26:03.810Z,1.70
2018-12-12T20:28:33.444Z,1.60
2018-12-12T20:31:03.019Z,1.60
2018-12-12T20:33:32.628Z,1.60
2018-12-12T20:36:02.194Z,1.50
2018-12-12T20:38:31.865Z,1.50
2018-12-12T20:41:02.757Z,1.50
2018-12-12T20:43:32.603Z,1.50
2018-12-12T20:46:02.213Z,1.50
2018-12-12T20:48:31.837Z,1.50
2018-12-12T20:51:01.441Z,1.50
2018-12-12T20:53:31.054Z,1.40
2018-12-12T20:56:00.708Z,1.30
2018-12-12T20:58:30.332Z,1.30
2018-12-12T21:00:59.981Z,1.20
2018-12-12T21:03:29.573Z,1.10
2018-12-12T21:05:59.219Z,1.00
2018-12-12T21:08:28.900Z,1.00
2018-12-12T21:10:58.555Z,1.00
2018-12-12T21:13:28.204Z,0.90
2018-12-12T21:15:57.830Z,0.90
2018-12-12T21:18:27.323Z,0.90
2018-12-12T21:20:56.911Z,0.90
2018-12-12T21:23:26.579Z,0.90
2018-12-12T21:25:56.607Z,0.90
2018-12-12T21:28:26.196Z,0.90
2018-12-12T21:30:55.943Z,0.90
2018-12-12T21:33:25.565Z,0.80
2018-12-12T21:36:00.721Z,0.80
2018-12-12T21:38:26.980Z,0.80
2018-12-12T21:40:56.685Z,0.80
2018-12-12T21:43:26.269Z,0.70
2018-12-12T21:45:55.881Z,0.70
2018-12-12T21:48:25.512Z,0.60
2018-12-12T21:50:55.224Z,0.60
2018-12-12T21:53:24.911Z,0.60
2018-12-12T21:55:54.545Z,0.50
2018-12-12T21:58:24.232Z,0.50
2018-12-12T22:00:53.863Z,0.40
2018-12-12T22:03:23.597Z,0.30
2018-12-12T22:05:53.791Z,0.30
2018-12-12T22:08:23.472Z,0.20
2018-12-12T22:10:53.093Z,0.10
2018-12-12T22:13:22.794Z,0.00
2018-12-12T22:15:52.533Z,0.00
2018-12-12T22:18:22.222Z,0.00
2018-12-12T22:20:51.835Z,-0.10
2018-12-12T22:23:22.280Z,-0.10
2018-12-12T22:25:51.900Z,-0.10
2018-12-12T22:28:21.570Z,-0.10
2018-12-12T22:30:51.182Z,-0.10
2018-12-12T22:33:20.919Z,-0.20
2018-12-12T22:35:50.566Z,-0.20
2018-12-12T22:38:20.396Z,-0.20
2018-12-12T22:40:50.019Z,-0.30
2018-12-12T22:43:19.758Z,-0.30
2018-12-12T22:45:49.694Z,-0.30
2018-12-12T22:48:20.769Z,-0.30
2018-12-12T22:50:51.064Z,-0.30
2018-12-12T22:53:20.897Z,-0.30
2018-12-12T22:55:50.886Z,-0.30
2018-12-12T22:58:20.882Z,-0.30
2018-12-12T23:00:55.847Z,-0.30
2018-12-12T23:03:25.842Z,-0.40
2018-12-12T23:05:55.654Z,-0.40
2018-12-12T23:08:26.002Z,-0.40
2018-12-12T23:10:56.089Z,-0.40
2018-12-12T23:13:25.726Z,-0.40
2018-12-12T23:15:55.375Z,-0.40
2018-12-12T23:18:25.015Z,-0.40
2018-12-12T23:20:54.656Z,-0.40
2018-12-12T23:23:24.269Z,-0.40
2018-12-12T23:25:53.990Z,-0.40
2018-12-12T23:28:23.670Z,-0.40
2018-12-12T23:30:53.304Z,-0.50
2018-12-12T23:33:24.070Z,-0.40
2018-12-12T23:35:53.958Z,-0.40
2018-12-12T23:38:23.585Z,-0.40
2018-12-12T23:40:53.278Z,-0.40
2018-12-12T23:43:22.868Z,-0.40
2018-12-12T23:45:52.532Z,-0.40
2018-12-12T23:48:22.151Z,-0.40
2018-12-12T23:50:51.841Z,-0.40
2018-12-12T23:53:21.476Z,-0.40
2018-12-12T23:55:51.102Z,-0.40
2018-12-12T23:58:20.578Z,-0.40
